Flight Track Log - Related Links

Times and Time Zones

All times are in EDT time to prevent confusion due to time zone crossing. See the N50906 flight status page for this flight to view local times or setup timezone preferences in your user account.

Time Position Orientation Groundspeed Altitude Reporting Facility
EDT Latitude Longitude Course Direction KTS MPH feet Rate Location/Type
Fri 06:22:00 PM 38.6756 -91.9768 124° Southeast  Level FlightAware Approximate
Fri 06:23:00 PM 38.6535 -91.9355 124° Southeast  Level FlightAware Approximate
Fri 06:24:00 PM 38.6315 -91.8942 124° Southeast  Level FlightAware Approximate
Fri 06:25:00 PM 38.6094 -91.8529 124° Southeast  Level FlightAware Approximate
Fri 06:26:00 PM 38.5873 -91.8116 124° Southeast  Level FlightAware Approximate
Fri 06:27:00 PM 38.5651 -91.7703 124° Southeast  Level FlightAware Approximate
Fri 06:28:00 PM 38.5430 -91.7291 124° Southeast  Level FlightAware Approximate
Fri 06:29:00 PM 38.5209 -91.6879 124° Southeast  Level FlightAware Approximate
Fri 06:30:00 PM 38.4987 -91.6468 125° Southeast  Level FlightAware Approximate
Fri 06:31:00 PM 38.4765 -91.6056 125° Southeast  Level FlightAware Approximate
Fri 06:32:00 PM 38.4543 -91.5645 125° Southeast  Level FlightAware Approximate
Fri 06:33:00 PM 38.4321 -91.5234 125° Southeast  Level FlightAware Approximate
Fri 06:34:00 PM 38.4099 -91.4823 125° Southeast  Level FlightAware Approximate
Fri 06:35:00 PM 38.3876 -91.4413 125° Southeast  Level FlightAware Approximate
Fri 06:36:00 PM 38.3642 -91.4014 127° Southeast  Level FlightAware Approximate
Fri 06:37:00 PM 38.3405 -91.3618 127° Southeast  Level FlightAware Approximate
Fri 06:38:00 PM 38.3167 -91.3222 127° Southeast  Level FlightAware Approximate
Fri 06:39:00 PM 38.2929 -91.2826 127° Southeast  Level FlightAware Approximate
Fri 06:40:00 PM 38.2708 -91.2416 122° Southeast  Level FlightAware Approximate
Fri 06:41:00 PM 38.2499 -91.1995 113° Southeast  Level FlightAware Approximate
Fri 06:42:00 PM 38.2346 -91.1537 113° Southeast  Level FlightAware Approximate
Fri 06:43:00 PM 38.2333 -91.1500 113° Southeast  Level FlightAware Approximate
Fri 06:44:00 PM 38.2335 -91.1643 North  Level Estimated
Fri 06:45:00 PM 38.2335 -91.1643 113° Southeast  Level Estimated
Fri 06:46:00 PM 38.2335 -91.1643 91° East  Level Estimated
Fri 06:47:00 PM 38.2335 -91.1643 113° Southeast  Level Estimated
Fri 06:48:00 PM 38.2335 -91.1643 91° East  Level Estimated
Fri 06:49:00 PM 38.2335 -91.1643 113° Southeast  Level Estimated
Fri 06:50:00 PM 38.2335 -91.1643 91° East  Level Estimated
Fri 06:51:00 PM 38.2335 -91.1643 113° Southeast  Level Estimated
Fri 06:52:00 PM 38.2335 -91.1643 91° East  Level Estimated
Fri 06:53:00 PM 38.2335 -91.1643 113° Southeast  Level Estimated
Fri 06:54:00 PM 38.2335 -91.1643 91° East  Level Estimated
Fri 06:55:00 PM 38.2335 -91.1643 113° Southeast  Level Estimated
Fri 06:56:00 PM 38.2335 -91.1643 91° East  Level Estimated
Fri 06:57:00 PM 38.2335 -91.1643 113° Southeast  Level Estimated
Fri 06:58:00 PM 38.2335 -91.1643 91° East  Level Estimated

Login

Don't have an account? Register now (free) for customized features, flight alerts, and more!